createdAt,value
2022-09-01T00:00:08.044Z,5.80
2022-09-01T00:02:36.775Z,6.30
2022-09-01T00:05:07.492Z,6.17
2022-09-01T00:07:36.396Z,6.70
2022-09-01T00:10:08.355Z,6.80
2022-09-01T00:12:39.212Z,6.53
2022-09-01T00:15:11.110Z,6.07
2022-09-01T00:17:39.794Z,6.20
2022-09-01T00:20:09.522Z,6.73
2022-09-01T00:22:38.069Z,6.93
2022-09-01T00:25:08.079Z,6.50
2022-09-01T00:27:37.929Z,7.10
2022-09-01T00:30:07.863Z,6.40
2022-09-01T00:32:36.524Z,7.50
2022-09-01T00:35:05.536Z,7.03
2022-09-01T00:37:33.934Z,7.13
2022-09-01T00:40:03.475Z,6.53
2022-09-01T00:42:35.020Z,7.27
2022-09-01T00:45:07.284Z,7.23
2022-09-01T00:47:37.923Z,7.10
2022-09-01T00:50:09.604Z,6.83
2022-09-01T00:52:40.766Z,7.17
2022-09-01T00:55:13.085Z,6.50
2022-09-01T00:57:42.823Z,6.57
2022-09-01T01:00:17.116Z,6.10
2022-09-01T01:02:46.128Z,7.30
2022-09-01T01:05:15.546Z,6.53
2022-09-01T01:07:48.015Z,6.73
2022-09-01T01:10:20.659Z,7.20
2022-09-01T01:12:51.885Z,6.50
2022-09-01T01:15:22.855Z,8.07
2022-09-01T01:17:54.098Z,6.70
2022-09-01T01:20:44.463Z,8.03
2022-09-01T01:23:22.067Z,8.00
2022-09-01T01:25:54.936Z,7.87
2022-09-01T01:28:27.983Z,8.93
2022-09-01T01:31:01.769Z,9.80
2022-09-01T01:33:33.840Z,10.60
2022-09-01T01:36:03.695Z,11.30
2022-09-01T01:38:32.096Z,11.03
2022-09-01T01:41:02.534Z,10.93
2022-09-01T01:43:31.215Z,12.00
2022-09-01T01:46:02.708Z,12.23
2022-09-01T01:48:39.750Z,13.20
2022-09-01T01:51:12.047Z,12.50
2022-09-01T01:53:43.021Z,13.37
2022-09-01T01:56:12.943Z,12.90
2022-09-01T01:58:41.807Z,12.90
2022-09-01T02:01:12.809Z,12.13
2022-09-01T02:03:42.062Z,12.27
2022-09-01T02:06:14.942Z,12.10
2022-09-01T02:08:43.788Z,13.30
2022-09-01T02:11:16.888Z,12.33
2022-09-01T02:13:46.981Z,14.17
2022-09-01T02:16:16.940Z,13.20
2022-09-01T02:18:51.321Z,15.00
2022-09-01T02:21:22.568Z,14.50
2022-09-01T02:24:00.296Z,15.17
2022-09-01T02:26:32.782Z,15.60
2022-09-01T02:29:04.706Z,16.07
2022-09-01T02:31:39.990Z,17.00
2022-09-01T02:34:10.700Z,18.43
2022-09-01T02:36:47.554Z,17.23
2022-09-01T02:39:20.028Z,10.93
2022-09-01T02:41:51.663Z,8.27
2022-09-01T02:44:29.080Z,8.40
2022-09-01T02:46:58.833Z,8.00
2022-09-01T02:49:28.364Z,6.70
2022-09-01T02:52:01.872Z,6.83
2022-09-01T02:54:32.959Z,5.53
2022-09-01T02:57:04.095Z,5.40
2022-09-01T02:59:37.295Z,4.90
2022-09-01T03:02:08.332Z,5.57
2022-09-01T03:04:38.370Z,4.70
2022-09-01T03:07:08.770Z,5.97
2022-09-01T03:09:37.548Z,6.83
2022-09-01T03:12:07.590Z,5.90
2022-09-01T03:14:36.856Z,6.87
2022-09-01T03:17:05.438Z,8.10
2022-09-01T03:19:45.233Z,9.23
2022-09-01T03:22:13.783Z,10.10
2022-09-01T03:24:42.884Z,9.80
2022-09-01T03:27:12.667Z,10.50
2022-09-01T03:29:41.320Z,10.37
2022-09-01T03:32:10.472Z,11.80
2022-09-01T03:34:39.658Z,11.40
2022-09-01T03:37:09.756Z,10.80
2022-09-01T03:39:42.707Z,11.60
2022-09-01T03:42:19.475Z,9.67
2022-09-01T03:44:49.361Z,6.37
2022-09-01T03:47:19.083Z,6.23
2022-09-01T03:49:49.667Z,5.87
2022-09-01T03:52:18.294Z,5.00
2022-09-01T03:54:54.008Z,5.23
2022-09-01T03:57:24.109Z,5.27
2022-09-01T03:59:55.281Z,5.30
2022-09-01T04:02:27.913Z,6.10
2022-09-01T04:04:59.080Z,5.30
2022-09-01T04:07:28.957Z,6.30
2022-09-01T04:09:57.542Z,5.37
2022-09-01T04:12:27.420Z,5.90
2022-09-01T04:14:58.440Z,4.60
2022-09-01T04:17:44.804Z,4.53
2022-09-01T04:20:15.409Z,4.70
2022-09-01T04:22:50.599Z,5.57
2022-09-01T04:25:23.099Z,5.10
2022-09-01T04:27:54.052Z,5.10
2022-09-01T04:30:24.932Z,5.13
2022-09-01T04:32:56.955Z,5.17
2022-09-01T04:35:37.684Z,5.23
2022-09-01T04:38:08.352Z,5.13
2022-09-01T04:40:40.320Z,5.07
2022-09-01T04:43:10.373Z,5.50
2022-09-01T04:45:41.049Z,4.80
2022-09-01T04:48:10.465Z,4.43
2022-09-01T04:50:41.815Z,4.40
2022-09-01T04:53:20.875Z,4.63
2022-09-01T04:55:53.796Z,4.70
2022-09-01T04:58:25.578Z,4.73
2022-09-01T05:00:56.050Z,4.97
2022-09-01T05:03:25.431Z,4.77
2022-09-01T05:06:03.955Z,4.33
2022-09-01T05:08:35.434Z,4.57
2022-09-01T05:11:09.664Z,4.33
2022-09-01T05:13:43.537Z,4.60
2022-09-01T05:16:15.826Z,4.30
2022-09-01T05:18:49.041Z,4.60
2022-09-01T05:21:22.395Z,4.47
2022-09-01T05:23:51.941Z,6.43
2022-09-01T05:26:24.051Z,5.40
2022-09-01T05:28:59.815Z,6.10
2022-09-01T05:31:35.064Z,6.10
2022-09-01T05:34:03.891Z,7.57
2022-09-01T05:36:33.845Z,8.97
2022-09-01T05:39:04.852Z,8.27
2022-09-01T05:41:38.636Z,9.07
2022-09-01T05:44:11.319Z,8.40
2022-09-01T05:46:42.613Z,10.67
2022-09-01T05:49:13.984Z,12.33
2022-09-01T05:51:45.869Z,10.97
2022-09-01T05:54:16.425Z,13.10
2022-09-01T05:56:46.147Z,12.77
2022-09-01T05:59:23.060Z,12.47
2022-09-01T06:01:54.713Z,13.40
2022-09-01T06:04:25.971Z,14.17
2022-09-01T06:07:06.194Z,14.10
2022-09-01T06:09:39.625Z,14.63
2022-09-01T06:12:09.283Z,16.87
2022-09-01T06:14:39.520Z,16.97
2022-09-01T06:17:10.140Z,17.97
2022-09-01T06:19:40.056Z,17.00
2022-09-01T06:22:11.485Z,18.20
2022-09-01T06:24:43.600Z,17.50
2022-09-01T06:27:14.776Z,18.10
2022-09-01T06:29:45.504Z,18.37
2022-09-01T06:32:14.905Z,19.97
2022-09-01T06:34:51.439Z,16.50
2022-09-01T06:37:23.140Z,15.83
2022-09-01T06:39:57.576Z,17.07
2022-09-01T06:42:26.265Z,18.93
2022-09-01T06:45:01.918Z,20.60
2022-09-01T06:47:30.684Z,22.20
2022-09-01T06:50:00.772Z,21.10
2022-09-01T06:53:32.174Z,21.80
2022-09-01T06:55:18.819Z,19.90
2022-09-01T06:58:13.909Z,17.43
2022-09-01T07:00:45.007Z,14.07
2022-09-01T07:03:15.733Z,13.67
2022-09-01T07:06:07.225Z,15.40
2022-09-01T07:09:46.960Z,11.00
2022-09-01T07:12:30.054Z,12.10
2022-09-01T07:17:52.739Z,11.07
2022-09-01T07:20:25.772Z,9.53
2022-09-01T07:23:06.277Z,9.03
2022-09-01T07:28:47.793Z,8.90
2022-09-01T07:39:55.835Z,7.93
2022-09-01T07:45:47.978Z,8.83
2022-09-01T07:49:01.204Z,7.60
2022-09-01T07:54:03.872Z,7.13
2022-09-01T07:56:36.316Z,6.57
2022-09-01T07:59:12.707Z,6.20
2022-09-01T08:02:05.737Z,6.27
2022-09-01T08:04:36.775Z,6.30
2022-09-01T08:07:15.362Z,5.77
2022-09-01T08:09:44.952Z,5.40
2022-09-01T08:12:16.414Z,6.80
2022-09-01T08:17:52.031Z,6.97
2022-09-01T08:20:25.693Z,8.10
2022-09-01T08:23:14.965Z,7.70
2022-09-01T08:25:47.231Z,7.83
2022-09-01T08:28:26.626Z,7.20
2022-09-01T08:30:56.293Z,6.60
2022-09-01T08:33:35.164Z,6.70
2022-09-01T08:36:04.406Z,6.17
2022-09-01T08:38:34.714Z,6.30
2022-09-01T08:41:04.377Z,6.70
2022-09-01T08:43:51.584Z,6.30
2022-09-01T08:46:27.289Z,6.97
2022-09-01T08:52:15.210Z,7.77
2022-09-01T08:54:51.509Z,7.70
2022-09-01T08:57:27.497Z,6.03
2022-09-01T09:00:20.271Z,6.27
2022-09-01T09:03:00.338Z,5.53
2022-09-01T09:05:40.105Z,5.77
2022-09-01T09:08:46.054Z,6.83
2022-09-01T09:11:30.037Z,4.50
2022-09-01T09:14:06.625Z,5.17
2022-09-01T09:16:40.935Z,5.10
2022-09-01T09:19:12.442Z,5.00
2022-09-01T09:21:42.907Z,5.67
2022-09-01T09:24:22.427Z,4.20
2022-09-01T09:26:53.384Z,5.50
2022-09-01T09:29:23.525Z,4.33
2022-09-01T09:32:22.598Z,5.40
2022-09-01T09:34:52.167Z,4.70
2022-09-01T09:37:27.695Z,4.97
2022-09-01T09:40:15.216Z,4.30
2022-09-01T09:43:04.275Z,3.90
2022-09-01T09:45:35.307Z,4.10
2022-09-01T09:48:12.324Z,3.60
2022-09-01T09:50:43.990Z,3.90
2022-09-01T09:53:19.679Z,3.90
2022-09-01T09:55:58.461Z,3.93
2022-09-01T09:58:36.495Z,3.53
2022-09-01T10:01:09.584Z,4.07
2022-09-01T10:03:45.944Z,3.93
2022-09-01T10:06:31.317Z,3.47
2022-09-01T10:09:01.759Z,3.50
2022-09-01T10:11:36.876Z,3.37
2022-09-01T10:14:35.567Z,3.70
2022-09-01T10:17:11.694Z,3.60
2022-09-01T10:19:49.443Z,3.50
2022-09-01T10:22:17.841Z,3.67
2022-09-01T10:24:50.182Z,3.30
2022-09-01T10:27:24.563Z,3.20
2022-09-01T10:30:19.857Z,3.00
2022-09-01T10:32:55.681Z,3.10
2022-09-01T10:35:30.519Z,4.30
2022-09-01T10:38:00.835Z,5.10
2022-09-01T10:40:49.266Z,4.67
2022-09-01T10:43:37.247Z,4.20
2022-09-01T10:46:52.287Z,4.70
2022-09-01T10:49:38.851Z,4.83
2022-09-01T10:52:12.977Z,5.30
2022-09-01T10:54:59.561Z,5.40
2022-09-01T10:57:56.187Z,4.13
2022-09-01T11:03:56.745Z,4.03
2022-09-01T11:07:29.693Z,4.07
2022-09-01T11:10:32.961Z,3.67
2022-09-01T11:13:32.828Z,3.10
2022-09-01T11:16:50.334Z,3.20
2022-09-01T11:19:41.474Z,3.63
2022-09-01T11:22:28.828Z,3.47
2022-09-01T11:25:39.492Z,3.70
2022-09-01T11:28:11.444Z,4.00
2022-09-01T11:30:52.917Z,3.80
2022-09-01T11:33:44.276Z,3.57
2022-09-01T11:36:24.614Z,3.67
2022-09-01T11:39:04.948Z,3.47
2022-09-01T11:41:44.972Z,3.13
2022-09-01T11:44:19.483Z,3.87
2022-09-01T11:46:47.988Z,4.03
2022-09-01T11:49:29.362Z,3.00
2022-09-01T11:51:59.840Z,4.17
2022-09-01T11:54:39.953Z,4.20
2022-09-01T11:57:25.725Z,4.33
2022-09-01T11:59:55.136Z,4.43
2022-09-01T12:02:27.015Z,3.77
2022-09-01T12:04:57.084Z,3.70
2022-09-01T12:07:40.958Z,3.57
2022-09-01T12:10:21.194Z,3.57
2022-09-01T12:13:03.417Z,3.50
2022-09-01T12:15:35.144Z,4.13
2022-09-01T12:18:23.543Z,3.30
2022-09-01T12:20:54.253Z,3.77
2022-09-01T12:23:27.032Z,3.43
2022-09-01T12:25:58.944Z,3.83
2022-09-01T12:28:31.132Z,3.57
2022-09-01T12:31:04.061Z,3.67
2022-09-01T12:33:38.005Z,3.60
2022-09-01T12:36:21.772Z,4.10
2022-09-01T12:38:52.807Z,3.47
2022-09-01T12:41:40.776Z,3.23
2022-09-01T12:44:30.331Z,3.57
2022-09-01T12:47:02.023Z,3.47
2022-09-01T12:49:50.231Z,3.10
2022-09-01T12:52:26.521Z,3.57
2022-09-01T12:55:09.261Z,3.70
2022-09-01T12:57:43.329Z,3.80
2022-09-01T13:00:24.057Z,3.60
2022-09-01T13:03:08.066Z,3.30
2022-09-01T13:05:42.379Z,2.90
2022-09-01T13:08:13.060Z,3.50
2022-09-01T13:10:43.477Z,2.93
2022-09-01T13:13:15.039Z,2.70
2022-09-01T13:15:48.182Z,3.70
2022-09-01T13:18:18.287Z,2.80
2022-09-01T13:20:47.886Z,3.20
2022-09-01T13:23:17.451Z,2.50
2022-09-01T13:25:46.703Z,2.80
2022-09-01T13:28:18.097Z,2.57
2022-09-01T13:31:28.711Z,2.27
2022-09-01T13:39:19.244Z,2.53
2022-09-01T13:41:52.896Z,2.47
2022-09-01T13:44:22.768Z,2.50
2022-09-01T13:50:06.511Z,2.60
2022-09-01T13:52:35.599Z,2.70
2022-09-01T13:55:04.173Z,2.70
2022-09-01T13:57:55.178Z,2.77
2022-09-01T14:00:31.682Z,2.57
2022-09-01T14:03:02.773Z,2.50
2022-09-01T14:05:33.681Z,2.70
2022-09-01T14:08:02.995Z,2.60
2022-09-01T14:10:33.825Z,2.10
2022-09-01T14:13:02.560Z,2.60
2022-09-01T14:15:32.505Z,2.23
2022-09-01T14:18:01.179Z,2.07
2022-09-01T14:20:36.676Z,2.33
2022-09-01T14:23:08.715Z,2.30
2022-09-01T14:25:40.230Z,2.50
2022-09-01T14:28:09.044Z,2.10
2022-09-01T14:30:42.273Z,1.80
2022-09-01T14:33:13.596Z,2.07
2022-09-01T14:35:45.397Z,2.23
2022-09-01T14:38:15.531Z,2.40
2022-09-01T14:40:48.098Z,1.93
2022-09-01T14:43:17.047Z,2.20
2022-09-01T14:45:48.302Z,2.30
2022-09-01T14:48:18.362Z,1.90
2022-09-01T14:50:51.064Z,2.20
2022-09-01T14:53:20.300Z,1.97
2022-09-01T14:55:51.452Z,1.90
2022-09-01T14:58:25.334Z,1.90
2022-09-01T15:01:03.478Z,1.63
2022-09-01T15:03:36.257Z,2.10
2022-09-01T15:06:07.234Z,1.77
2022-09-01T15:08:36.126Z,2.00
2022-09-01T15:11:08.687Z,1.90
2022-09-01T15:13:37.344Z,1.80
2022-09-01T15:16:14.060Z,1.80
2022-09-01T15:18:42.800Z,2.17
2022-09-01T15:21:20.595Z,2.40
2022-09-01T15:23:49.824Z,2.13
2022-09-01T15:26:21.798Z,2.27
2022-09-01T15:28:51.520Z,2.23
2022-09-01T15:31:32.181Z,1.80
2022-09-01T15:34:03.530Z,2.20
2022-09-01T15:36:33.091Z,1.93
2022-09-01T15:39:02.235Z,5.50
2022-09-01T15:41:35.869Z,1.97
2022-09-01T15:44:07.758Z,3.20
2022-09-01T15:46:40.660Z,2.60
2022-09-01T15:49:12.792Z,2.77
2022-09-01T15:51:42.879Z,2.73
2022-09-01T15:54:13.459Z,2.77
2022-09-01T15:56:42.989Z,3.07
2022-09-01T15:59:12.640Z,3.17
2022-09-01T16:01:45.543Z,2.90
2022-09-01T16:04:20.079Z,2.63
2022-09-01T16:06:54.548Z,2.50
2022-09-01T16:09:23.192Z,2.37
2022-09-01T16:11:51.759Z,2.70
2022-09-01T16:14:21.251Z,2.60
2022-09-01T16:17:02.879Z,2.73
2022-09-01T16:19:49.804Z,2.60
2022-09-01T16:22:24.279Z,2.30
2022-09-01T16:24:57.882Z,2.40
2022-09-01T16:27:35.745Z,2.43
2022-09-01T16:30:09.833Z,2.47
2022-09-01T16:32:44.165Z,2.10
2022-09-01T16:35:16.942Z,2.00
2022-09-01T16:37:56.232Z,2.37
2022-09-01T16:40:37.497Z,2.00
2022-09-01T16:43:11.402Z,2.53
2022-09-01T16:45:52.062Z,2.10
2022-09-01T16:48:27.896Z,2.30
2022-09-01T16:51:06.525Z,2.03
2022-09-01T16:53:54.132Z,2.37
2022-09-01T16:56:32.096Z,2.30
2022-09-01T16:59:07.593Z,1.90
2022-09-01T17:01:43.471Z,2.37
2022-09-01T17:04:20.849Z,2.83
2022-09-01T17:06:58.251Z,1.90
2022-09-01T17:09:34.748Z,2.10
2022-09-01T17:12:30.521Z,2.37
2022-09-01T17:15:10.216Z,2.30
2022-09-01T17:17:45.041Z,2.53
2022-09-01T17:20:16.272Z,3.30
2022-09-01T17:22:55.805Z,4.20
2022-09-01T17:25:32.769Z,2.87
2022-09-01T17:28:04.648Z,2.60
2022-09-01T17:30:44.683Z,2.50
2022-09-01T17:33:23.235Z,2.70
2022-09-01T17:36:10.453Z,2.03
2022-09-01T17:38:54.341Z,2.50
2022-09-01T17:41:35.765Z,2.67
2022-09-01T17:44:12.909Z,2.20
2022-09-01T17:46:47.189Z,2.50
2022-09-01T17:49:26.511Z,2.20
2022-09-01T17:52:03.470Z,2.60
2022-09-01T17:54:43.325Z,2.40
2022-09-01T17:57:22.931Z,2.27
2022-09-01T17:59:59.336Z,2.73
2022-09-01T18:02:48.359Z,2.57
2022-09-01T18:05:19.848Z,2.67
2022-09-01T18:08:15.642Z,3.00
2022-09-01T18:10:50.305Z,2.90
2022-09-01T18:13:49.275Z,2.77
2022-09-01T18:16:18.116Z,2.70
2022-09-01T18:18:49.269Z,3.03
2022-09-01T18:21:21.785Z,3.63
2022-09-01T18:23:57.163Z,3.50
2022-09-01T18:26:29.916Z,3.30
2022-09-01T18:28:59.272Z,2.97
2022-09-01T18:31:45.436Z,2.90
2022-09-01T18:34:25.080Z,3.43
2022-09-01T18:37:01.063Z,2.93
2022-09-01T18:39:46.719Z,2.67
2022-09-01T18:42:23.962Z,3.07
2022-09-01T18:44:58.105Z,3.33
2022-09-01T18:47:34.260Z,2.90
2022-09-01T18:50:13.240Z,3.90
2022-09-01T18:53:04.819Z,2.83
2022-09-01T18:55:42.352Z,3.00
2022-09-01T18:58:17.119Z,3.00
2022-09-01T19:00:54.634Z,3.10
2022-09-01T19:03:30.645Z,2.97
2022-09-01T19:06:23.269Z,3.40
2022-09-01T19:09:01.659Z,2.30
2022-09-01T19:11:43.573Z,2.83
2022-09-01T19:14:20.552Z,3.00
2022-09-01T19:17:20.144Z,2.70
2022-09-01T19:19:56.908Z,3.37
2022-09-01T19:22:37.737Z,2.60
2022-09-01T19:25:26.790Z,2.40
2022-09-01T19:27:59.743Z,3.20
2022-09-01T19:30:28.924Z,2.90
2022-09-01T19:32:59.760Z,3.10
2022-09-01T19:35:34.455Z,2.70
2022-09-01T19:38:05.652Z,2.97
2022-09-01T19:40:39.245Z,2.63
2022-09-01T19:43:13.808Z,3.67
2022-09-01T19:45:56.818Z,2.90
2022-09-01T19:48:32.450Z,2.73
2022-09-01T19:51:06.658Z,2.80
2022-09-01T19:53:47.521Z,2.03
2022-09-01T19:56:23.507Z,2.67
2022-09-01T19:59:04.261Z,2.80
2022-09-01T20:01:44.658Z,2.83
2022-09-01T20:04:27.252Z,2.73
2022-09-01T20:07:00.419Z,2.23
2022-09-01T20:09:38.471Z,2.50
2022-09-01T20:12:18.288Z,3.00
2022-09-01T20:14:59.601Z,3.00
2022-09-01T20:17:33.760Z,2.97
2022-09-01T20:20:08.863Z,2.67
2022-09-01T20:22:46.552Z,2.57
2022-09-01T20:25:17.959Z,2.30
2022-09-01T20:28:02.565Z,2.50
2022-09-01T20:30:39.864Z,2.60
2022-09-01T20:33:16.651Z,2.37
2022-09-01T20:35:49.976Z,2.80
2022-09-01T20:38:42.616Z,2.70
2022-09-01T20:41:19.021Z,3.00
2022-09-01T20:43:52.237Z,2.60
2022-09-01T20:46:23.000Z,2.57
2022-09-01T20:48:51.900Z,3.30
2022-09-01T20:51:27.717Z,2.80
2022-09-01T20:54:13.203Z,3.00
2022-09-01T20:56:54.058Z,2.73
2022-09-01T20:59:33.647Z,2.90
2022-09-01T21:02:14.599Z,2.83
2022-09-01T21:04:49.948Z,3.10
2022-09-01T21:07:21.807Z,2.57
2022-09-01T21:10:04.162Z,2.80
2022-09-01T21:12:38.221Z,2.30
2022-09-01T21:15:22.080Z,2.80
2022-09-01T21:18:02.905Z,3.07
2022-09-01T21:20:42.691Z,2.70
2022-09-01T21:23:11.336Z,2.50
2022-09-01T21:25:40.083Z,2.40
2022-09-01T21:28:10.054Z,2.90
2022-09-01T21:30:38.805Z,2.23
2022-09-01T21:33:08.739Z,2.47
2022-09-01T21:35:39.880Z,2.17
2022-09-01T21:38:08.375Z,2.30
2022-09-01T21:40:36.923Z,2.50
2022-09-01T21:43:08.271Z,2.27
2022-09-01T21:45:38.870Z,2.60
2022-09-01T21:48:11.058Z,3.10
2022-09-01T21:50:40.768Z,2.93
2022-09-01T21:53:09.780Z,2.37
2022-09-01T21:55:38.457Z,2.10
2022-09-01T21:58:07.270Z,2.70
2022-09-01T22:00:40.463Z,2.73
2022-09-01T22:03:11.238Z,2.10
2022-09-01T22:05:42.083Z,2.90
2022-09-01T22:08:12.441Z,2.50
2022-09-01T22:10:44.464Z,2.20
2022-09-01T22:13:13.866Z,2.17
2022-09-01T22:15:43.795Z,2.50
2022-09-01T22:18:14.196Z,2.70
2022-09-01T22:20:43.320Z,3.50
2022-09-01T22:23:12.655Z,2.53
2022-09-01T22:25:43.518Z,2.60
2022-09-01T22:28:12.146Z,2.63
2022-09-01T22:30:46.359Z,2.70
2022-09-01T22:33:19.589Z,2.40
2022-09-01T22:35:51.727Z,3.10
2022-09-01T22:38:23.935Z,2.53
2022-09-01T22:40:55.120Z,2.80
2022-09-01T22:43:27.077Z,2.90
2022-09-01T22:45:57.000Z,2.83
2022-09-01T22:48:27.813Z,3.63
2022-09-01T22:50:56.395Z,2.97
2022-09-01T22:53:24.856Z,3.17
2022-09-01T22:55:54.217Z,3.00
2022-09-01T22:58:22.665Z,2.60
2022-09-01T23:00:53.289Z,3.80
2022-09-01T23:03:22.798Z,3.37
2022-09-01T23:06:05.398Z,3.23
2022-09-01T23:08:33.971Z,2.90
2022-09-01T23:11:04.798Z,3.37
2022-09-01T23:13:34.196Z,3.00
2022-09-01T23:16:04.601Z,3.60
2022-09-01T23:18:38.374Z,3.07
2022-09-01T23:21:10.686Z,2.37
2022-09-01T23:23:39.968Z,2.70
2022-09-01T23:26:11.805Z,3.30
2022-09-01T23:28:43.662Z,3.07
2022-09-01T23:31:14.607Z,2.63
2022-09-01T23:33:43.546Z,3.13
2022-09-01T23:36:18.444Z,2.90
2022-09-01T23:38:47.649Z,2.90
2022-09-01T23:41:18.034Z,3.20
2022-09-01T23:43:46.499Z,2.80
2022-09-01T23:46:19.834Z,3.27
2022-09-01T23:48:48.408Z,2.90
2022-09-01T23:51:19.079Z,3.00
2022-09-01T23:53:48.081Z,3.60
2022-09-01T23:56:18.219Z,2.90
2022-09-01T23:58:46.850Z,2.37
